Boone, IA

9:29 PM CDT on October 01, 2014 (GMT -0500)
Boone Municipal | Change Station
CLOSE
Current Station
Airport
Location: Boone,
Elevation: 1161 ft
Nearby Weather Stations

Elev 1161 ft 42.05 °N, 93.85 °W | Updated 14 minutes ago

Overcast
Overcast
66 °F
Feels Like 66 °F
N
6
Wind Variable Wind from SSE

Today
High -- | Low -- °F
--% Chance of Precip.
Yesterday
High -- | Low -- °F
Precip. -- in
7:12 AM 6:57 PM
First Quarter, 53% visible
Pressure 29.81 in
Visibility 7.0 miles
Clouds Overcast 3000 ft
Dew Point 64 °F
Humidity 94%
Rainfall 0.70 in
Snow Depth Not available.
UV 0 out of 12
Pollen .40 out of 12
Air Quality Not available.
Flu Activity Not available.
METAR KBNW 020215Z AUTO 16005KT 7SM OVC030 19/18 A2981 RMK AO2

More Conditions Fewer Conditions

Pressure 29.81 in
Visibility 7.0 miles
Clouds Overcast 3000 ft
Dew Point 64 °F
Humidity 94%
Rainfall 0.70 in
Snow Depth Not available.
UV 0 out of 12
Pollen .40 out of 12
Air Quality Not available.
Flu Activity Not available.
METAR KBNW 020215Z AUTO 16005KT 7SM OVC030 19/18 A2981 RMK AO2

More Conditions Fewer Conditions

10-Day Weather Forecast

Almanac

Astronomy

Oct. 01, 2014 Rise Set
Actual Time 7:12 AM CDT 6:57 PM CDT
Civil Twilight 6:44 AM CDT 7:24 PM CDT
Nautical Twilight 6:12 AM CDT 7:57 PM CDT
Astronomical Twilight 5:39 AM CDT 8:29 PM CDT
Moon 2:18 PM CDT (10/1) No Moon Set
Length of Visible Light 12h 40m
Length of Day
11h 44m
Tomorrow will be 2m 48s shorter.
First Quarter, 53% of the Moon is Illuminated
Today
First Quarter
Oct 8
Full
Oct 15
Last Quarter
Oct 23
New
Oct 30
First Quarter

Today's Extremes

State Highs State Lows

Community

WunderPhotos

Upload Photos

1,758,142 photos uploaded!

WunderBlogs® & News

Nearby

Snow Depth

Station Depth Elevation
No new snow has been reported.

Earthquake Activity

City Distance Mag. Time & Date
No recent earthquake activity has been reported nearby.
Minimum magnitude displayed is 2.5.

Coastal Water Temperatures

Place Temperature
No Stations Reporting

Nearby Weather Stations